Coaraci, Brazil
Current Conditions -  °F | °C
As of 2:00 AM on Monday 22 Dec 2014 (Local Time) from SBIL Reporting Station
Scattered Clouds Scattered Clouds  
Wind Chill: 75°   Ceiling: Unl
Heat Index: 75°   Visibility: 4mi
Dew Point: 73°   Wind: 5mph
Humidity: 94%   Direction: 250°WSW
Pressure: 29.91"   Gusts: NA
Location:  14.64°S, 39.55°W
Report Text: SBIL 220500Z 25004KT 6000 SCT015 SCT030 24/23 Q1013
Loading
Personal Weather Stations






























Interactive Weather Map New forecast layout! Learn more

10-Day Weather Forecast

Advertisements
Track Severe Weather on mobile